sensor_id;sensor_type;location;lat;lon;timestamp;P1;durP1;ratioP1;P2;durP2;ratioP2
40635;SDS011;26642;55.766;37.828;2023-07-13T00:00:26;2.30;;;2.10;;
40635;SDS011;26642;55.766;37.828;2023-07-13T00:02:52;4.00;;;2.08;;
40635;SDS011;26642;55.766;37.828;2023-07-13T00:05:21;2.28;;;1.80;;
40635;SDS011;26642;55.766;37.828;2023-07-13T00:07:48;2.45;;;1.90;;
40635;SDS011;26642;55.766;37.828;2023-07-13T00:10:15;2.95;;;1.90;;
40635;SDS011;26642;55.766;37.828;2023-07-13T00:12:41;3.53;;;2.40;;
40635;SDS011;26642;55.766;37.828;2023-07-13T00:15:11;2.60;;;1.92;;
40635;SDS011;26642;55.766;37.828;2023-07-13T00:17:41;3.47;;;2.22;;
40635;SDS011;26642;55.766;37.828;2023-07-13T00:20:11;2.72;;;2.00;;
40635;SDS011;26642;55.766;37.828;2023-07-13T00:22:37;3.40;;;2.20;;
40635;SDS011;26642;55.766;37.828;2023-07-13T00:25:03;1.70;;;1.60;;
40635;SDS011;26642;55.766;37.828;2023-07-13T00:27:29;4.95;;;2.35;;
40635;SDS011;26642;55.766;37.828;2023-07-13T00:29:57;8.43;;;2.88;;
40635;SDS011;26642;55.766;37.828;2023-07-13T00:32:24;4.60;;;2.38;;
40635;SDS011;26642;55.766;37.828;2023-07-13T00:34:53;2.35;;;1.90;;
40635;SDS011;26642;55.766;37.828;2023-07-13T00:37:19;2.05;;;1.80;;
40635;SDS011;26642;55.766;37.828;2023-07-13T00:39:45;2.08;;;1.77;;
40635;SDS011;26642;55.766;37.828;2023-07-13T00:42:11;1.90;;;1.70;;
40635;SDS011;26642;55.766;37.828;2023-07-13T00:44:37;2.08;;;1.60;;
40635;SDS011;26642;55.766;37.828;2023-07-13T00:47:05;1.70;;;1.60;;
40635;SDS011;26642;55.766;37.828;2023-07-13T00:49:31;2.35;;;1.90;;
40635;SDS011;26642;55.766;37.828;2023-07-13T00:52:04;3.10;;;1.98;;
40635;SDS011;26642;55.766;37.828;2023-07-13T00:54:39;3.55;;;1.70;;
40635;SDS011;26642;55.766;37.828;2023-07-13T00:57:11;2.85;;;2.35;;
40635;SDS011;26642;55.766;37.828;2023-07-13T00:59:41;2.28;;;1.80;;
40635;SDS011;26642;55.766;37.828;2023-07-13T01:02:10;3.85;;;2.15;;
40635;SDS011;26642;55.766;37.828;2023-07-13T01:04:37;2.78;;;1.58;;
40635;SDS011;26642;55.766;37.828;2023-07-13T01:07:03;1.75;;;1.63;;
40635;SDS011;26642;55.766;37.828;2023-07-13T01:09:31;3.72;;;2.00;;
40635;SDS011;26642;55.766;37.828;2023-07-13T01:11:57;2.15;;;1.90;;
40635;SDS011;26642;55.766;37.828;2023-07-13T01:14:24;2.20;;;2.00;;
40635;SDS011;26642;55.766;37.828;2023-07-13T01:16:50;1.77;;;1.67;;
40635;SDS011;26642;55.766;37.828;2023-07-13T01:21:51;2.15;;;1.95;;
40635;SDS011;26642;55.766;37.828;2023-07-13T01:24:18;3.95;;;2.05;;
40635;SDS011;26642;55.766;37.828;2023-07-13T01:26:44;3.47;;;1.85;;
40635;SDS011;26642;55.766;37.828;2023-07-13T01:29:10;2.67;;;2.10;;
40635;SDS011;26642;55.766;37.828;2023-07-13T01:31:38;1.77;;;1.67;;
40635;SDS011;26642;55.766;37.828;2023-07-13T01:34:03;2.05;;;1.85;;
40635;SDS011;26642;55.766;37.828;2023-07-13T01:36:30;3.25;;;2.08;;
40635;SDS011;26642;55.766;37.828;2023-07-13T01:38:56;1.92;;;1.73;;
40635;SDS011;26642;55.766;37.828;2023-07-13T01:41:22;2.67;;;1.85;;
40635;SDS011;26642;55.766;37.828;2023-07-13T01:43:48;2.58;;;1.90;;
40635;SDS011;26642;55.766;37.828;2023-07-13T01:46:14;1.98;;;1.80;;
40635;SDS011;26642;55.766;37.828;2023-07-13T01:48:40;2.95;;;1.70;;
40635;SDS011;26642;55.766;37.828;2023-07-13T01:51:06;3.65;;;1.90;;
40635;SDS011;26642;55.766;37.828;2023-07-13T01:53:32;2.58;;;1.90;;
40635;SDS011;26642;55.766;37.828;2023-07-13T01:55:57;2.55;;;1.98;;
40635;SDS011;26642;55.766;37.828;2023-07-13T01:58:23;3.78;;;2.00;;
40635;SDS011;26642;55.766;37.828;2023-07-13T02:00:49;2.47;;;2.00;;
40635;SDS011;26642;55.766;37.828;2023-07-13T02:03:17;3.95;;;2.08;;
40635;SDS011;26642;55.766;37.828;2023-07-13T02:05:43;2.78;;;2.15;;
40635;SDS011;26642;55.766;37.828;2023-07-13T02:08:10;1.80;;;1.70;;
40635;SDS011;26642;55.766;37.828;2023-07-13T02:10:36;2.65;;;1.80;;
40635;SDS011;26642;55.766;37.828;2023-07-13T02:13:05;2.67;;;2.40;;
40635;SDS011;26642;55.766;37.828;2023-07-13T02:15:31;3.22;;;2.45;;
40635;SDS011;26642;55.766;37.828;2023-07-13T02:17:57;5.20;;;2.47;;
40635;SDS011;26642;55.766;37.828;2023-07-13T02:20:24;5.07;;;2.70;;
40635;SDS011;26642;55.766;37.828;2023-07-13T02:22:51;2.22;;;2.03;;
40635;SDS011;26642;55.766;37.828;2023-07-13T02:25:20;2.50;;;2.22;;
40635;SDS011;26642;55.766;37.828;2023-07-13T02:27:48;3.30;;;2.30;;
40635;SDS011;26642;55.766;37.828;2023-07-13T02:30:16;2.30;;;2.08;;
40635;SDS011;26642;55.766;37.828;2023-07-13T02:32:42;2.25;;;2.00;;
40635;SDS011;26642;55.766;37.828;2023-07-13T02:35:09;3.85;;;1.80;;
40635;SDS011;26642;55.766;37.828;2023-07-13T02:37:36;3.08;;;2.20;;
40635;SDS011;26642;55.766;37.828;2023-07-13T02:40:03;2.63;;;2.40;;
40635;SDS011;26642;55.766;37.828;2023-07-13T02:42:35;4.10;;;2.15;;
40635;SDS011;26642;55.766;37.828;2023-07-13T02:45:01;2.70;;;2.10;;
40635;SDS011;26642;55.766;37.828;2023-07-13T02:47:27;3.08;;;1.98;;
40635;SDS011;26642;55.766;37.828;2023-07-13T02:49:53;2.80;;;2.22;;
40635;SDS011;26642;55.766;37.828;2023-07-13T02:52:19;3.75;;;2.38;;
40635;SDS011;26642;55.766;37.828;2023-07-13T02:54:45;5.03;;;2.15;;
40635;SDS011;26642;55.766;37.828;2023-07-13T02:57:11;2.80;;;2.10;;
40635;SDS011;26642;55.766;37.828;2023-07-13T02:59:37;5.22;;;2.33;;
40635;SDS011;26642;55.766;37.828;2023-07-13T03:02:04;2.92;;;2.13;;
40635;SDS011;26642;55.766;37.828;2023-07-13T03:04:30;4.50;;;2.10;;
40635;SDS011;26642;55.766;37.828;2023-07-13T03:06:56;4.88;;;2.47;;
40635;SDS011;26642;55.766;37.828;2023-07-13T03:09:26;3.25;;;2.10;;
40635;SDS011;26642;55.766;37.828;2023-07-13T03:11:54;2.20;;;1.98;;
40635;SDS011;26642;55.766;37.828;2023-07-13T03:14:25;2.28;;;2.08;;
40635;SDS011;26642;55.766;37.828;2023-07-13T03:16:52;2.95;;;1.90;;
40635;SDS011;26642;55.766;37.828;2023-07-13T03:19:20;2.83;;;2.17;;
40635;SDS011;26642;55.766;37.828;2023-07-13T03:21:49;2.88;;;2.42;;
40635;SDS011;26642;55.766;37.828;2023-07-13T03:24:15;2.78;;;2.35;;
40635;SDS011;26642;55.766;37.828;2023-07-13T03:26:42;3.38;;;2.42;;
40635;SDS011;26642;55.766;37.828;2023-07-13T03:29:08;3.22;;;2.30;;
40635;SDS011;26642;55.766;37.828;2023-07-13T03:31:37;2.45;;;2.25;;
40635;SDS011;26642;55.766;37.828;2023-07-13T03:34:03;3.55;;;2.22;;
40635;SDS011;26642;55.766;37.828;2023-07-13T03:36:30;3.22;;;2.20;;
40635;SDS011;26642;55.766;37.828;2023-07-13T03:39:02;5.43;;;3.00;;
40635;SDS011;26642;55.766;37.828;2023-07-13T03:41:51;4.03;;;2.80;;
40635;SDS011;26642;55.766;37.828;2023-07-13T03:44:18;3.03;;;2.20;;
40635;SDS011;26642;55.766;37.828;2023-07-13T03:46:48;2.58;;;2.35;;
40635;SDS011;26642;55.766;37.828;2023-07-13T03:49:14;2.67;;;2.30;;
40635;SDS011;26642;55.766;37.828;2023-07-13T03:51:40;2.70;;;2.20;;
40635;SDS011;26642;55.766;37.828;2023-07-13T03:54:06;2.60;;;2.15;;
40635;SDS011;26642;55.766;37.828;2023-07-13T03:56:32;5.13;;;2.35;;
40635;SDS011;26642;55.766;37.828;2023-07-13T03:59:00;2.65;;;2.38;;
40635;SDS011;26642;55.766;37.828;2023-07-13T04:01:25;4.20;;;2.40;;
40635;SDS011;26642;55.766;37.828;2023-07-13T04:03:52;3.15;;;2.15;;
40635;SDS011;26642;55.766;37.828;2023-07-13T04:06:22;3.95;;;2.20;;
40635;SDS011;26642;55.766;37.828;2023-07-13T04:08:52;3.65;;;2.60;;
40635;SDS011;26642;55.766;37.828;2023-07-13T04:11:20;2.83;;;2.25;;
40635;SDS011;26642;55.766;37.828;2023-07-13T04:13:48;3.38;;;2.30;;
40635;SDS011;26642;55.766;37.828;2023-07-13T04:16:15;3.33;;;2.05;;
40635;SDS011;26642;55.766;37.828;2023-07-13T04:18:42;4.75;;;2.38;;
40635;SDS011;26642;55.766;37.828;2023-07-13T04:21:09;5.45;;;2.28;;
40635;SDS011;26642;55.766;37.828;2023-07-13T04:23:35;3.00;;;2.65;;
40635;SDS011;26642;55.766;37.828;2023-07-13T04:26:03;2.10;;;1.90;;
40635;SDS011;26642;55.766;37.828;2023-07-13T04:28:30;4.03;;;2.30;;
40635;SDS011;26642;55.766;37.828;2023-07-13T04:30:56;3.75;;;2.10;;
40635;SDS011;26642;55.766;37.828;2023-07-13T04:33:22;6.00;;;2.53;;
40635;SDS011;26642;55.766;37.828;2023-07-13T04:35:49;3.80;;;2.30;;
40635;SDS011;26642;55.766;37.828;2023-07-13T04:38:20;2.42;;;2.22;;
40635;SDS011;26642;55.766;37.828;2023-07-13T04:40:46;3.35;;;2.17;;
40635;SDS011;26642;55.766;37.828;2023-07-13T04:43:12;2.42;;;2.22;;
40635;SDS011;26642;55.766;37.828;2023-07-13T04:45:38;5.20;;;2.10;;
40635;SDS011;26642;55.766;37.828;2023-07-13T04:48:04;3.63;;;2.20;;
40635;SDS011;26642;55.766;37.828;2023-07-13T04:50:31;2.78;;;1.95;;
40635;SDS011;26642;55.766;37.828;2023-07-13T04:52:57;2.60;;;2.35;;
40635;SDS011;26642;55.766;37.828;2023-07-13T04:55:23;3.40;;;2.40;;
40635;SDS011;26642;55.766;37.828;2023-07-13T04:57:49;4.75;;;2.15;;
40635;SDS011;26642;55.766;37.828;2023-07-13T05:00:15;5.68;;;2.50;;
40635;SDS011;26642;55.766;37.828;2023-07-13T05:02:43;2.55;;;2.35;;
40635;SDS011;26642;55.766;37.828;2023-07-13T05:05:10;3.97;;;2.35;;
40635;SDS011;26642;55.766;37.828;2023-07-13T05:07:36;2.55;;;2.20;;
40635;SDS011;26642;55.766;37.828;2023-07-13T05:10:03;5.07;;;2.45;;
40635;SDS011;26642;55.766;37.828;2023-07-13T05:12:29;3.67;;;2.63;;
40635;SDS011;26642;55.766;37.828;2023-07-13T05:14:56;4.53;;;2.22;;
40635;SDS011;26642;55.766;37.828;2023-07-13T05:17:22;2.85;;;2.17;;
40635;SDS011;26642;55.766;37.828;2023-07-13T05:19:48;3.63;;;2.35;;
40635;SDS011;26642;55.766;37.828;2023-07-13T05:22:14;3.45;;;2.35;;
40635;SDS011;26642;55.766;37.828;2023-07-13T05:24:39;7.78;;;2.80;;
40635;SDS011;26642;55.766;37.828;2023-07-13T05:27:05;3.88;;;2.38;;
40635;SDS011;26642;55.766;37.828;2023-07-13T05:29:31;2.15;;;1.98;;
40635;SDS011;26642;55.766;37.828;2023-07-13T05:31:57;3.03;;;2.05;;
40635;SDS011;26642;55.766;37.828;2023-07-13T05:34:23;6.50;;;2.60;;
40635;SDS011;26642;55.766;37.828;2023-07-13T05:36:49;3.53;;;2.42;;
40635;SDS011;26642;55.766;37.828;2023-07-13T05:39:15;3.60;;;2.60;;
40635;SDS011;26642;55.766;37.828;2023-07-13T05:41:41;3.97;;;3.00;;
40635;SDS011;26642;55.766;37.828;2023-07-13T05:44:07;4.50;;;2.60;;
40635;SDS011;26642;55.766;37.828;2023-07-13T05:46:33;2.85;;;2.55;;
40635;SDS011;26642;55.766;37.828;2023-07-13T05:48:59;5.15;;;2.65;;
40635;SDS011;26642;55.766;37.828;2023-07-13T05:51:25;3.38;;;2.60;;
40635;SDS011;26642;55.766;37.828;2023-07-13T05:53:51;3.42;;;2.67;;
40635;SDS011;26642;55.766;37.828;2023-07-13T05:56:17;4.00;;;2.55;;
40635;SDS011;26642;55.766;37.828;2023-07-13T05:58:43;6.05;;;2.47;;
40635;SDS011;26642;55.766;37.828;2023-07-13T06:01:10;7.05;;;2.45;;
40635;SDS011;26642;55.766;37.828;2023-07-13T06:03:37;3.55;;;2.50;;
40635;SDS011;26642;55.766;37.828;2023-07-13T06:06:04;3.92;;;2.55;;
40635;SDS011;26642;55.766;37.828;2023-07-13T06:08:31;3.97;;;2.20;;
40635;SDS011;26642;55.766;37.828;2023-07-13T06:11:07;4.20;;;2.47;;
40635;SDS011;26642;55.766;37.828;2023-07-13T06:13:40;3.08;;;2.47;;
40635;SDS011;26642;55.766;37.828;2023-07-13T06:16:06;6.60;;;2.80;;
40635;SDS011;26642;55.766;37.828;2023-07-13T06:18:33;3.85;;;2.05;;
40635;SDS011;26642;55.766;37.828;2023-07-13T06:20:59;5.60;;;2.20;;
40635;SDS011;26642;55.766;37.828;2023-07-13T06:23:26;5.05;;;2.63;;
40635;SDS011;26642;55.766;37.828;2023-07-13T06:25:52;4.25;;;2.30;;
40635;SDS011;26642;55.766;37.828;2023-07-13T06:28:18;6.10;;;2.45;;
40635;SDS011;26642;55.766;37.828;2023-07-13T06:30:44;3.58;;;2.22;;
40635;SDS011;26642;55.766;37.828;2023-07-13T06:33:10;3.67;;;2.28;;
40635;SDS011;26642;55.766;37.828;2023-07-13T06:35:36;3.40;;;2.20;;
40635;SDS011;26642;55.766;37.828;2023-07-13T06:38:02;3.13;;;2.40;;
40635;SDS011;26642;55.766;37.828;2023-07-13T06:40:28;4.07;;;2.45;;
40635;SDS011;26642;55.766;37.828;2023-07-13T06:42:55;4.28;;;2.10;;
40635;SDS011;26642;55.766;37.828;2023-07-13T06:45:21;2.35;;;2.10;;
40635;SDS011;26642;55.766;37.828;2023-07-13T06:47:48;3.90;;;2.10;;
40635;SDS011;26642;55.766;37.828;2023-07-13T06:50:14;3.63;;;2.00;;
40635;SDS011;26642;55.766;37.828;2023-07-13T06:52:40;4.28;;;2.50;;
40635;SDS011;26642;55.766;37.828;2023-07-13T06:55:07;3.60;;;2.13;;
40635;SDS011;26642;55.766;37.828;2023-07-13T06:57:33;3.85;;;2.10;;
40635;SDS011;26642;55.766;37.828;2023-07-13T06:59:59;2.15;;;1.90;;
40635;SDS011;26642;55.766;37.828;2023-07-13T07:02:25;3.72;;;2.22;;
40635;SDS011;26642;55.766;37.828;2023-07-13T07:04:51;3.42;;;2.20;;
40635;SDS011;26642;55.766;37.828;2023-07-13T07:07:17;4.03;;;2.10;;
40635;SDS011;26642;55.766;37.828;2023-07-13T07:09:43;2.22;;;2.03;;
40635;SDS011;26642;55.766;37.828;2023-07-13T07:12:09;2.55;;;1.80;;
40635;SDS011;26642;55.766;37.828;2023-07-13T07:14:35;2.22;;;1.90;;
40635;SDS011;26642;55.766;37.828;2023-07-13T07:17:00;4.55;;;2.60;;
40635;SDS011;26642;55.766;37.828;2023-07-13T07:19:27;2.72;;;2.33;;
40635;SDS011;26642;55.766;37.828;2023-07-13T07:21:55;7.00;;;2.38;;
40635;SDS011;26642;55.766;37.828;2023-07-13T07:24:21;7.78;;;2.50;;
40635;SDS011;26642;55.766;37.828;2023-07-13T07:26:46;5.35;;;2.33;;
40635;SDS011;26642;55.766;37.828;2023-07-13T07:29:12;4.30;;;2.10;;
40635;SDS011;26642;55.766;37.828;2023-07-13T07:31:38;6.65;;;2.15;;
40635;SDS011;26642;55.766;37.828;2023-07-13T07:34:05;6.32;;;2.55;;
40635;SDS011;26642;55.766;37.828;2023-07-13T07:36:31;5.70;;;2.42;;
40635;SDS011;26642;55.766;37.828;2023-07-13T07:38:57;3.92;;;2.15;;
40635;SDS011;26642;55.766;37.828;2023-07-13T07:41:23;3.58;;;2.63;;
40635;SDS011;26642;55.766;37.828;2023-07-13T07:43:49;8.05;;;2.83;;
40635;SDS011;26642;55.766;37.828;2023-07-13T07:46:15;4.45;;;2.20;;
40635;SDS011;26642;55.766;37.828;2023-07-13T07:48:41;6.10;;;2.40;;
40635;SDS011;26642;55.766;37.828;2023-07-13T07:51:07;4.50;;;2.78;;
40635;SDS011;26642;55.766;37.828;2023-07-13T07:53:33;4.53;;;2.70;;
40635;SDS011;26642;55.766;37.828;2023-07-13T07:55:59;6.15;;;2.92;;
40635;SDS011;26642;55.766;37.828;2023-07-13T07:58:25;10.55;;;3.00;;
40635;SDS011;26642;55.766;37.828;2023-07-13T08:00:51;6.50;;;2.63;;
40635;SDS011;26642;55.766;37.828;2023-07-13T08:03:16;7.90;;;2.80;;
40635;SDS011;26642;55.766;37.828;2023-07-13T08:05:42;7.63;;;3.00;;
40635;SDS011;26642;55.766;37.828;2023-07-13T08:08:08;6.38;;;2.90;;
40635;SDS011;26642;55.766;37.828;2023-07-13T08:10:35;7.55;;;3.10;;
40635;SDS011;26642;55.766;37.828;2023-07-13T08:13:02;6.32;;;2.65;;
40635;SDS011;26642;55.766;37.828;2023-07-13T08:15:28;3.70;;;2.50;;
40635;SDS011;26642;55.766;37.828;2023-07-13T08:17:54;4.40;;;2.70;;
40635;SDS011;26642;55.766;37.828;2023-07-13T08:20:20;4.20;;;2.35;;
40635;SDS011;26642;55.766;37.828;2023-07-13T08:22:46;3.72;;;2.20;;
40635;SDS011;26642;55.766;37.828;2023-07-13T08:25:12;5.32;;;3.08;;
40635;SDS011;26642;55.766;37.828;2023-07-13T08:27:38;19.40;;;6.68;;
40635;SDS011;26642;55.766;37.828;2023-07-13T08:30:04;15.68;;;5.00;;
40635;SDS011;26642;55.766;37.828;2023-07-13T08:32:31;7.05;;;3.10;;
40635;SDS011;26642;55.766;37.828;2023-07-13T08:34:57;7.15;;;3.00;;
40635;SDS011;26642;55.766;37.828;2023-07-13T08:37:23;7.88;;;2.92;;
40635;SDS011;26642;55.766;37.828;2023-07-13T08:39:49;6.25;;;2.72;;
40635;SDS011;26642;55.766;37.828;2023-07-13T08:48:09;6.10;;;3.58;;
40635;SDS011;26642;55.766;37.828;2023-07-13T08:50:35;7.97;;;3.90;;
40635;SDS011;26642;55.766;37.828;2023-07-13T08:53:13;8.73;;;3.97;;
40635;SDS011;26642;55.766;37.828;2023-07-13T08:55:41;5.10;;;3.88;;
40635;SDS011;26642;55.766;37.828;2023-07-13T08:58:12;5.28;;;4.13;;
40635;SDS011;26642;55.766;37.828;2023-07-13T09:03:36;6.72;;;3.80;;
40635;SDS011;26642;55.766;37.828;2023-07-13T09:06:07;5.82;;;3.90;;
40635;SDS011;26642;55.766;37.828;2023-07-13T09:16:32;6.05;;;3.70;;
40635;SDS011;26642;55.766;37.828;2023-07-13T09:19:01;6.72;;;3.78;;
40635;SDS011;26642;55.766;37.828;2023-07-13T09:21:31;6.78;;;3.38;;
40635;SDS011;26642;55.766;37.828;2023-07-13T09:26:53;7.47;;;3.70;;
40635;SDS011;26642;55.766;37.828;2023-07-13T09:29:28;4.47;;;3.20;;
40635;SDS011;26642;55.766;37.828;2023-07-13T09:31:58;4.75;;;3.40;;
40635;SDS011;26642;55.766;37.828;2023-07-13T09:34:28;4.85;;;3.10;;
40635;SDS011;26642;55.766;37.828;2023-07-13T09:36:58;6.55;;;3.35;;
40635;SDS011;26642;55.766;37.828;2023-07-13T09:44:27;5.97;;;2.85;;
40635;SDS011;26642;55.766;37.828;2023-07-13T09:46:59;5.70;;;3.05;;
40635;SDS011;26642;55.766;37.828;2023-07-13T09:49:34;3.72;;;2.95;;
40635;SDS011;26642;55.766;37.828;2023-07-13T09:54:29;6.13;;;2.97;;
40635;SDS011;26642;55.766;37.828;2023-07-13T09:56:58;4.90;;;2.40;;
40635;SDS011;26642;55.766;37.828;2023-07-13T09:59:30;4.05;;;2.70;;
40635;SDS011;26642;55.766;37.828;2023-07-13T10:02:01;4.07;;;2.70;;
40635;SDS011;26642;55.766;37.828;2023-07-13T10:07:22;3.20;;;2.55;;
40635;SDS011;26642;55.766;37.828;2023-07-13T10:09:51;5.45;;;2.83;;
40635;SDS011;26642;55.766;37.828;2023-07-13T10:12:19;6.47;;;3.30;;
40635;SDS011;26642;55.766;37.828;2023-07-13T10:14:46;6.10;;;2.78;;
40635;SDS011;26642;55.766;37.828;2023-07-13T10:17:13;6.47;;;3.30;;
40635;SDS011;26642;55.766;37.828;2023-07-13T10:19:41;5.00;;;2.90;;
40635;SDS011;26642;55.766;37.828;2023-07-13T10:24:50;3.55;;;2.88;;
40635;SDS011;26642;55.766;37.828;2023-07-13T10:27:18;7.45;;;2.92;;
40635;SDS011;26642;55.766;37.828;2023-07-13T10:30:02;4.60;;;2.75;;
40635;SDS011;26642;55.766;37.828;2023-07-13T10:32:37;6.07;;;3.50;;
40635;SDS011;26642;55.766;37.828;2023-07-13T10:35:04;7.22;;;3.70;;
40635;SDS011;26642;55.766;37.828;2023-07-13T10:37:55;9.07;;;3.45;;
40635;SDS011;26642;55.766;37.828;2023-07-13T10:40:29;6.65;;;3.35;;
40635;SDS011;26642;55.766;37.828;2023-07-13T10:43:00;4.82;;;3.40;;
40635;SDS011;26642;55.766;37.828;2023-07-13T10:45:33;4.70;;;3.40;;
40635;SDS011;26642;55.766;37.828;2023-07-13T10:48:01;5.30;;;3.05;;
40635;SDS011;26642;55.766;37.828;2023-07-13T10:50:29;4.38;;;3.33;;
40635;SDS011;26642;55.766;37.828;2023-07-13T10:58:40;3.35;;;2.47;;
40635;SDS011;26642;55.766;37.828;2023-07-13T11:01:08;5.57;;;3.10;;
40635;SDS011;26642;55.766;37.828;2023-07-13T11:11:36;4.40;;;2.90;;
40635;SDS011;26642;55.766;37.828;2023-07-13T11:17:23;5.35;;;3.33;;
40635;SDS011;26642;55.766;37.828;2023-07-13T11:27:52;4.82;;;2.90;;
40635;SDS011;26642;55.766;37.828;2023-07-13T11:33:17;3.17;;;2.60;;
40635;SDS011;26642;55.766;37.828;2023-07-13T11:35:50;4.82;;;3.05;;
40635;SDS011;26642;55.766;37.828;2023-07-13T11:38:39;4.32;;;3.42;;
40635;SDS011;26642;55.766;37.828;2023-07-13T11:41:50;6.53;;;3.22;;
40635;SDS011;26642;55.766;37.828;2023-07-13T11:44:10;4.90;;;2.97;;
40635;SDS011;26642;55.766;37.828;2023-07-13T11:46:45;5.28;;;3.25;;
40635;SDS011;26642;55.766;37.828;2023-07-13T11:49:16;5.85;;;3.08;;
40635;SDS011;26642;55.766;37.828;2023-07-13T11:51:43;7.07;;;3.42;;
40635;SDS011;26642;55.766;37.828;2023-07-13T11:54:30;7.28;;;3.10;;
40635;SDS011;26642;55.766;37.828;2023-07-13T11:57:18;5.28;;;2.78;;
40635;SDS011;26642;55.766;37.828;2023-07-13T11:59:48;7.18;;;3.45;;
40635;SDS011;26642;55.766;37.828;2023-07-13T12:04:54;6.88;;;3.38;;
40635;SDS011;26642;55.766;37.828;2023-07-13T12:07:22;5.80;;;3.22;;
40635;SDS011;26642;55.766;37.828;2023-07-13T12:09:48;4.90;;;3.03;;
40635;SDS011;26642;55.766;37.828;2023-07-13T12:12:22;7.50;;;3.40;;
40635;SDS011;26642;55.766;37.828;2023-07-13T12:14:54;7.10;;;3.53;;
40635;SDS011;26642;55.766;37.828;2023-07-13T12:17:24;5.97;;;3.00;;
40635;SDS011;26642;55.766;37.828;2023-07-13T12:19:51;6.38;;;3.78;;
40635;SDS011;26642;55.766;37.828;2023-07-13T12:22:18;4.72;;;3.80;;
40635;SDS011;26642;55.766;37.828;2023-07-13T12:24:45;6.53;;;3.83;;
40635;SDS011;26642;55.766;37.828;2023-07-13T12:27:20;6.70;;;3.95;;
40635;SDS011;26642;55.766;37.828;2023-07-13T12:29:58;7.03;;;3.92;;
40635;SDS011;26642;55.766;37.828;2023-07-13T12:32:55;7.07;;;3.78;;
40635;SDS011;26642;55.766;37.828;2023-07-13T12:35:27;7.80;;;3.67;;
40635;SDS011;26642;55.766;37.828;2023-07-13T12:37:56;5.47;;;3.50;;
40635;SDS011;26642;55.766;37.828;2023-07-13T12:40:27;4.57;;;3.42;;
40635;SDS011;26642;55.766;37.828;2023-07-13T12:42:58;8.13;;;4.07;;
40635;SDS011;26642;55.766;37.828;2023-07-13T12:45:29;8.38;;;3.97;;
40635;SDS011;26642;55.766;37.828;2023-07-13T12:47:56;10.20;;;4.32;;
40635;SDS011;26642;55.766;37.828;2023-07-13T12:50:42;7.55;;;4.05;;
40635;SDS011;26642;55.766;37.828;2023-07-13T12:53:16;10.25;;;4.32;;
40635;SDS011;26642;55.766;37.828;2023-07-13T12:55:54;8.57;;;4.57;;
40635;SDS011;26642;55.766;37.828;2023-07-13T12:58:31;8.82;;;4.35;;
40635;SDS011;26642;55.766;37.828;2023-07-13T13:01:07;9.88;;;3.80;;
40635;SDS011;26642;55.766;37.828;2023-07-13T13:03:35;8.80;;;3.72;;
40635;SDS011;26642;55.766;37.828;2023-07-13T13:06:17;5.90;;;3.55;;
40635;SDS011;26642;55.766;37.828;2023-07-13T13:08:49;6.95;;;3.70;;
40635;SDS011;26642;55.766;37.828;2023-07-13T13:11:18;6.25;;;3.60;;
40635;SDS011;26642;55.766;37.828;2023-07-13T13:13:45;6.45;;;4.03;;
40635;SDS011;26642;55.766;37.828;2023-07-13T13:18:57;6.55;;;3.85;;
40635;SDS011;26642;55.766;37.828;2023-07-13T13:21:27;6.47;;;3.50;;
40635;SDS011;26642;55.766;37.828;2023-07-13T13:23:53;8.00;;;4.03;;
40635;SDS011;26642;55.766;37.828;2023-07-13T13:26:21;4.82;;;3.80;;
40635;SDS011;26642;55.766;37.828;2023-07-13T13:28:47;9.77;;;3.80;;
40635;SDS011;26642;55.766;37.828;2023-07-13T13:31:14;5.55;;;3.53;;
40635;SDS011;26642;55.766;37.828;2023-07-13T13:33:41;5.82;;;3.45;;
40635;SDS011;26642;55.766;37.828;2023-07-13T13:36:13;5.53;;;3.60;;
40635;SDS011;26642;55.766;37.828;2023-07-13T13:38:44;5.55;;;3.35;;
40635;SDS011;26642;55.766;37.828;2023-07-13T13:41:11;5.68;;;3.40;;
40635;SDS011;26642;55.766;37.828;2023-07-13T13:43:38;6.03;;;3.65;;
40635;SDS011;26642;55.766;37.828;2023-07-13T13:46:18;6.28;;;3.50;;
40635;SDS011;26642;55.766;37.828;2023-07-13T13:48:47;6.47;;;3.45;;
40635;SDS011;26642;55.766;37.828;2023-07-13T13:51:15;7.57;;;4.07;;
40635;SDS011;26642;55.766;37.828;2023-07-13T13:53:46;8.10;;;4.53;;
40635;SDS011;26642;55.766;37.828;2023-07-13T13:56:13;7.15;;;3.97;;
40635;SDS011;26642;55.766;37.828;2023-07-13T13:58:40;6.15;;;3.80;;
40635;SDS011;26642;55.766;37.828;2023-07-13T14:01:24;9.80;;;4.07;;
40635;SDS011;26642;55.766;37.828;2023-07-13T14:03:56;8.60;;;4.20;;
40635;SDS011;26642;55.766;37.828;2023-07-13T14:06:24;10.07;;;3.60;;
40635;SDS011;26642;55.766;37.828;2023-07-13T14:08:50;7.82;;;3.60;;
40635;SDS011;26642;55.766;37.828;2023-07-13T14:11:17;10.10;;;3.70;;
40635;SDS011;26642;55.766;37.828;2023-07-13T14:13:54;7.25;;;3.47;;
40635;SDS011;26642;55.766;37.828;2023-07-13T14:16:25;5.18;;;3.35;;
40635;SDS011;26642;55.766;37.828;2023-07-13T14:18:55;5.00;;;3.22;;
40635;SDS011;26642;55.766;37.828;2023-07-13T14:21:23;11.95;;;3.88;;
40635;SDS011;26642;55.766;37.828;2023-07-13T14:23:49;4.95;;;3.20;;
40635;SDS011;26642;55.766;37.828;2023-07-13T14:26:17;5.07;;;3.88;;
40635;SDS011;26642;55.766;37.828;2023-07-13T14:28:46;5.57;;;3.47;;
40635;SDS011;26642;55.766;37.828;2023-07-13T14:31:13;4.05;;;3.55;;
40635;SDS011;26642;55.766;37.828;2023-07-13T14:33:41;6.30;;;3.72;;
40635;SDS011;26642;55.766;37.828;2023-07-13T14:38:51;5.15;;;3.65;;
40635;SDS011;26642;55.766;37.828;2023-07-13T14:41:18;5.47;;;3.60;;
40635;SDS011;26642;55.766;37.828;2023-07-13T14:43:45;7.00;;;3.95;;
40635;SDS011;26642;55.766;37.828;2023-07-13T14:46:29;5.45;;;3.75;;
40635;SDS011;26642;55.766;37.828;2023-07-13T14:49:02;6.20;;;3.20;;
40635;SDS011;26642;55.766;37.828;2023-07-13T14:51:32;5.80;;;4.10;;
40635;SDS011;26642;55.766;37.828;2023-07-13T14:54:03;8.73;;;3.90;;
40635;SDS011;26642;55.766;37.828;2023-07-13T14:56:30;6.72;;;3.47;;
40635;SDS011;26642;55.766;37.828;2023-07-13T14:58:57;6.07;;;4.00;;
40635;SDS011;26642;55.766;37.828;2023-07-13T15:01:22;5.20;;;3.60;;
40635;SDS011;26642;55.766;37.828;2023-07-13T15:03:51;6.78;;;3.35;;
40635;SDS011;26642;55.766;37.828;2023-07-13T15:06:18;5.70;;;3.60;;
40635;SDS011;26642;55.766;37.828;2023-07-13T15:08:45;7.50;;;5.13;;
40635;SDS011;26642;55.766;37.828;2023-07-13T15:11:11;7.47;;;4.43;;
40635;SDS011;26642;55.766;37.828;2023-07-13T15:13:38;8.65;;;3.80;;
40635;SDS011;26642;55.766;37.828;2023-07-13T15:16:09;8.77;;;4.13;;
40635;SDS011;26642;55.766;37.828;2023-07-13T15:18:44;8.50;;;3.80;;
40635;SDS011;26642;55.766;37.828;2023-07-13T15:21:11;6.05;;;3.13;;
40635;SDS011;26642;55.766;37.828;2023-07-13T15:23:44;4.80;;;3.17;;
40635;SDS011;26642;55.766;37.828;2023-07-13T15:26:13;5.65;;;3.35;;
40635;SDS011;26642;55.766;37.828;2023-07-13T15:28:43;5.25;;;3.33;;
40635;SDS011;26642;55.766;37.828;2023-07-13T15:31:25;8.73;;;3.53;;
40635;SDS011;26642;55.766;37.828;2023-07-13T15:33:55;6.88;;;3.00;;
40635;SDS011;26642;55.766;37.828;2023-07-13T15:36:22;8.88;;;4.00;;
40635;SDS011;26642;55.766;37.828;2023-07-13T15:38:51;6.60;;;3.13;;
40635;SDS011;26642;55.766;37.828;2023-07-13T15:41:26;8.40;;;3.70;;
40635;SDS011;26642;55.766;37.828;2023-07-13T15:43:54;16.13;;;3.65;;
40635;SDS011;26642;55.766;37.828;2023-07-13T15:46:23;10.05;;;3.53;;
40635;SDS011;26642;55.766;37.828;2023-07-13T15:48:51;11.48;;;3.67;;
40635;SDS011;26642;55.766;37.828;2023-07-13T15:51:26;13.30;;;3.85;;